Time;durP1;ratioP1;P1;durP2;ratioP2;P2;SDS_P1;SDS_P2;PMS_P1;PMS_P2;Temp;Humidity;BMP_temperature;BMP_pressure;BME280_temperature;BME280_humidity;BME280_pressure;Samples;Min_cycle;Max_cycle;Signal;HPM_P1;HPM_P2
2023/12/10 00:01:58;;;;;;;14.37;7.97;;;;;;;;;;5024541;28;20055;-71
2023/12/10 00:04:24;;;;;;;15.73;8.17;;;;;;;;;;5014038;28;20529;-71
2023/12/10 00:06:49;;;;;;;16.37;8.27;;;;;;;;;;5028041;28;20481;-72
2023/12/10 00:09:15;;;;;;;15.73;7.57;;;;;;;;;;5033711;28;20030;-71
2023/12/10 00:11:40;;;;;;;14.67;8.23;;;;;;;;;;5033169;28;20393;-70
2023/12/10 00:14:06;;;;;;;12.23;6.67;;;;;;;;;;5033815;28;20056;-71
2023/12/10 00:16:31;;;;;;;11.70;5.80;;;;;;;;;;5033731;28;20037;-72
2023/12/10 00:18:57;;;;;;;11.23;6.47;;;;;;;;;;5030390;28;20025;-71
2023/12/10 00:21:23;;;;;;;15.07;6.23;;;;;;;;;;5035488;28;20029;-72
2023/12/10 00:23:49;;;;;;;12.07;6.33;;;;;;;;;;5035108;28;20474;-72
2023/12/10 00:26:14;;;;;;;12.27;6.20;;;;;;;;;;5017557;28;20027;-70
2023/12/10 00:28:40;;;;;;;13.03;6.10;;;;;;;;;;5036188;28;20025;-71
2023/12/10 00:31:08;;;;;;;11.83;6.63;;;;;;;;;;5039622;28;20034;-70
2023/12/10 00:33:33;;;;;;;11.03;4.90;;;;;;;;;;5039286;28;20036;-71
2023/12/10 00:35:59;;;;;;;11.70;6.80;;;;;;;;;;5034935;28;20037;-70
2023/12/10 00:38:24;;;;;;;9.90;5.37;;;;;;;;;;5032353;28;20108;-70
2023/12/10 00:40:50;;;;;;;13.47;6.73;;;;;;;;;;5034061;28;20320;-73
2023/12/10 00:43:16;;;;;;;11.30;6.03;;;;;;;;;;5019977;28;20077;-70
2023/12/10 00:45:42;;;;;;;14.27;6.77;;;;;;;;;;5012577;28;20422;-71
2023/12/10 00:48:08;;;;;;;11.07;6.17;;;;;;;;;;5012752;28;20112;-71
2023/12/10 00:50:34;;;;;;;15.13;7.30;;;;;;;;;;5014075;28;20060;-76
2023/12/10 00:53:03;;;;;;;16.20;6.27;;;;;;;;;;5012812;28;20030;-72
2023/12/10 00:55:30;;;;;;;13.13;5.83;;;;;;;;;;5026236;28;20041;-71
2023/12/10 00:57:56;;;;;;;14.40;6.67;;;;;;;;;;5031888;28;20068;-70
2023/12/10 01:00:22;;;;;;;14.27;6.87;;;;;;;;;;5033676;28;20029;-69
2023/12/10 01:02:49;;;;;;;14.70;7.50;;;;;;;;;;5034764;28;20517;-72
2023/12/10 01:05:15;;;;;;;10.50;6.23;;;;;;;;;;5034005;28;20029;-72
2023/12/10 01:07:40;;;;;;;13.07;7.17;;;;;;;;;;5020864;28;20030;-71
2023/12/10 01:10:07;;;;;;;13.20;6.63;;;;;;;;;;5014733;28;20041;-72
2023/12/10 01:12:36;;;;;;;14.23;6.57;;;;;;;;;;5013985;28;20379;-72
2023/12/10 01:15:05;;;;;;;13.40;6.63;;;;;;;;;;5013547;28;20120;-70
2023/12/10 01:17:32;;;;;;;11.40;5.93;;;;;;;;;;5013804;28;20026;-71
2023/12/10 01:19:59;;;;;;;12.77;6.83;;;;;;;;;;5027790;28;20050;-70
2023/12/10 01:22:25;;;;;;;14.90;7.07;;;;;;;;;;5032849;28;20095;-71
2023/12/10 01:24:52;;;;;;;11.70;5.80;;;;;;;;;;5036005;28;20037;-71
2023/12/10 01:27:18;;;;;;;12.40;6.67;;;;;;;;;;5034495;28;20029;-71
2023/12/10 01:29:44;;;;;;;14.73;7.20;;;;;;;;;;5032463;28;20041;-71
2023/12/10 01:32:13;;;;;;;13.13;6.40;;;;;;;;;;5019342;28;20555;-70
2023/12/10 01:34:41;;;;;;;14.60;7.63;;;;;;;;;;5011933;28;20034;-71
2023/12/10 01:37:07;;;;;;;13.77;6.53;;;;;;;;;;5012142;28;20033;-70
2023/12/10 01:39:33;;;;;;;15.30;7.07;;;;;;;;;;5012493;28;20445;-72
2023/12/10 01:41:58;;;;;;;12.90;6.70;;;;;;;;;;5013260;28;20026;-71
2023/12/10 01:44:24;;;;;;;15.67;6.03;;;;;;;;;;5011545;28;20114;-71
2023/12/10 01:46:50;;;;;;;14.33;6.63;;;;;;;;;;5012908;28;20029;-71
2023/12/10 01:49:16;;;;;;;12.83;7.07;;;;;;;;;;5011450;28;20034;-71
2023/12/10 01:51:44;;;;;;;14.10;7.50;;;;;;;;;;5012476;28;20025;-71
2023/12/10 01:54:21;;;;;;;11.47;6.60;;;;;;;;;;5011020;28;20609;-70
2023/12/10 01:56:49;;;;;;;16.00;6.60;;;;;;;;;;5029585;28;20124;-71
2023/12/10 01:59:15;;;;;;;13.60;6.93;;;;;;;;;;5031583;28;20103;-71
2023/12/10 02:01:40;;;;;;;13.47;7.00;;;;;;;;;;5025965;28;20761;-71
2023/12/10 02:04:06;;;;;;;14.80;7.13;;;;;;;;;;5015368;28;20084;-70
2023/12/10 02:06:32;;;;;;;14.07;7.20;;;;;;;;;;5011158;28;20026;-71
2023/12/10 02:08:59;;;;;;;13.20;7.53;;;;;;;;;;5012791;28;20037;-71
2023/12/10 02:11:25;;;;;;;13.10;6.77;;;;;;;;;;5012456;28;20033;-71
2023/12/10 02:13:51;;;;;;;14.07;7.00;;;;;;;;;;5012806;28;20482;-71
2023/12/10 02:16:17;;;;;;;13.53;7.10;;;;;;;;;;5011114;28;20060;-70
2023/12/10 02:18:42;;;;;;;12.93;7.57;;;;;;;;;;5012115;28;20401;-71
2023/12/10 02:21:08;;;;;;;13.97;6.90;;;;;;;;;;5030611;28;20038;-70
2023/12/10 02:24:05;;;;;;;16.07;6.47;;;;;;;;;;5031652;28;20025;-70
2023/12/10 02:26:33;;;;;;;13.50;6.53;;;;;;;;;;5030672;28;20116;-71
2023/12/10 02:28:59;;;;;;;16.33;6.83;;;;;;;;;;5032167;28;20520;-72
2023/12/10 02:31:25;;;;;;;14.00;6.23;;;;;;;;;;5025215;28;20033;-71
2023/12/10 02:33:51;;;;;;;12.63;6.40;;;;;;;;;;5016489;28;20037;-71
2023/12/10 02:36:17;;;;;;;15.37;7.10;;;;;;;;;;5016471;28;20034;-71
2023/12/10 02:38:44;;;;;;;11.90;6.20;;;;;;;;;;5014925;28;20040;-71
2023/12/10 02:41:10;;;;;;;10.20;5.80;;;;;;;;;;5014754;28;20362;-71
2023/12/10 02:43:36;;;;;;;13.17;6.63;;;;;;;;;;5016096;28;20040;-71
2023/12/10 02:46:01;;;;;;;17.17;6.07;;;;;;;;;;5016369;28;20034;-70
2023/12/10 02:48:27;;;;;;;11.00;6.67;;;;;;;;;;5015981;28;20041;-71
2023/12/10 02:50:54;;;;;;;12.60;6.00;;;;;;;;;;5017136;28;20474;-73
2023/12/10 02:53:20;;;;;;;16.13;6.37;;;;;;;;;;5018199;28;20029;-71
2023/12/10 02:55:46;;;;;;;12.80;6.00;;;;;;;;;;5016886;28;20034;-71
2023/12/10 02:58:11;;;;;;;12.97;5.47;;;;;;;;;;5016571;28;20037;-70
2023/12/10 03:00:37;;;;;;;10.70;5.93;;;;;;;;;;5014649;28;20509;-71
2023/12/10 03:03:02;;;;;;;12.40;7.23;;;;;;;;;;5034707;28;20029;-71
2023/12/10 03:05:28;;;;;;;12.20;6.37;;;;;;;;;;5035961;28;20386;-70
2023/12/10 03:07:53;;;;;;;14.47;7.00;;;;;;;;;;5028851;28;20038;-71
2023/12/10 03:10:20;;;;;;;12.70;5.57;;;;;;;;;;5017188;28;20029;-70
2023/12/10 03:12:45;;;;;;;11.73;6.10;;;;;;;;;;5014776;28;20041;-70
2023/12/10 03:15:11;;;;;;;10.40;6.17;;;;;;;;;;5014827;28;20041;-71
2023/12/10 03:17:37;;;;;;;8.37;4.93;;;;;;;;;;5015077;28;20025;-71
2023/12/10 03:20:03;;;;;;;10.87;4.93;;;;;;;;;;5024910;28;20389;-71
2023/12/10 03:22:29;;;;;;;8.37;5.20;;;;;;;;;;5033979;28;20548;-70
2023/12/10 03:24:55;;;;;;;9.77;5.53;;;;;;;;;;5035127;28;20109;-71
2023/12/10 03:27:21;;;;;;;10.90;6.90;;;;;;;;;;5035115;28;20420;-71
2023/12/10 03:29:48;;;;;;;11.23;6.23;;;;;;;;;;5036408;28;20070;-71
2023/12/10 03:32:14;;;;;;;10.67;5.70;;;;;;;;;;5037643;28;20033;-71
2023/12/10 03:34:40;;;;;;;10.33;5.40;;;;;;;;;;5039667;28;20030;-72
2023/12/10 03:37:06;;;;;;;9.73;5.70;;;;;;;;;;5036567;28;20040;-71
2023/12/10 03:39:33;;;;;;;13.17;6.50;;;;;;;;;;5038297;28;20083;-70
2023/12/10 03:41:59;;;;;;;9.63;5.20;;;;;;;;;;5035216;28;20029;-71
2023/12/10 03:44:24;;;;;;;9.00;5.10;;;;;;;;;;5024569;28;20030;-71
2023/12/10 03:46:50;;;;;;;11.10;6.00;;;;;;;;;;5014412;28;20636;-72
2023/12/10 03:49:15;;;;;;;11.77;6.47;;;;;;;;;;5016386;28;20037;-71
2023/12/10 03:51:41;;;;;;;11.53;5.60;;;;;;;;;;5014936;28;20030;-71
2023/12/10 03:54:07;;;;;;;9.27;5.27;;;;;;;;;;5015004;28;20087;-70
2023/12/10 03:56:32;;;;;;;11.13;5.50;;;;;;;;;;5026286;28;20140;-70
2023/12/10 03:58:58;;;;;;;11.30;6.13;;;;;;;;;;5034482;28;20021;-71
2023/12/10 04:01:23;;;;;;;13.77;5.10;;;;;;;;;;5027861;28;20355;-70
2023/12/10 04:03:49;;;;;;;13.33;6.13;;;;;;;;;;5014954;28;20345;-71
2023/12/10 04:06:15;;;;;;;9.57;5.93;;;;;;;;;;5014697;28;20021;-71
2023/12/10 04:08:42;;;;;;;8.33;5.30;;;;;;;;;;5030029;28;20029;-71
2023/12/10 04:11:08;;;;;;;12.07;5.57;;;;;;;;;;5034244;28;20033;-71
2023/12/10 04:13:33;;;;;;;9.53;5.40;;;;;;;;;;5037570;28;20468;-71
2023/12/10 04:16:00;;;;;;;11.23;5.07;;;;;;;;;;5038490;28;20480;-70
2023/12/10 04:18:27;;;;;;;8.47;4.47;;;;;;;;;;5033702;28;20333;-71
2023/12/10 04:20:52;;;;;;;8.87;5.43;;;;;;;;;;5015760;28;20061;-71
2023/12/10 04:23:18;;;;;;;11.37;5.40;;;;;;;;;;5034689;28;20061;-72
2023/12/10 04:25:44;;;;;;;9.20;5.07;;;;;;;;;;5032668;28;20037;-70
2023/12/10 04:28:09;;;;;;;7.57;4.27;;;;;;;;;;5016158;28;20037;-71
2023/12/10 04:30:35;;;;;;;9.97;4.83;;;;;;;;;;5033564;28;20033;-71
2023/12/10 04:33:00;;;;;;;9.53;5.73;;;;;;;;;;5016239;28;20034;-71
2023/12/10 04:35:26;;;;;;;7.73;4.63;;;;;;;;;;5014338;28;20025;-71
2023/12/10 04:37:52;;;;;;;7.93;4.43;;;;;;;;;;5013969;28;20036;-71
2023/12/10 04:40:18;;;;;;;9.40;5.07;;;;;;;;;;5012853;28;20034;-71
2023/12/10 04:42:44;;;;;;;8.00;5.13;;;;;;;;;;5013673;28;20099;-72
2023/12/10 04:45:09;;;;;;;10.50;4.83;;;;;;;;;;5028602;28;20034;-71
2023/12/10 04:47:36;;;;;;;10.63;5.80;;;;;;;;;;5033400;28;20057;-70
2023/12/10 04:50:03;;;;;;;12.40;4.80;;;;;;;;;;5033624;28;20032;-71
2023/12/10 04:52:32;;;;;;;11.33;7.03;;;;;;;;;;5015829;28;20029;-69
2023/12/10 04:54:58;;;;;;;7.57;4.60;;;;;;;;;;5014825;28;20033;-70
2023/12/10 04:57:26;;;;;;;8.50;5.37;;;;;;;;;;5016926;28;20049;-70
2023/12/10 04:59:52;;;;;;;10.70;5.17;;;;;;;;;;5013532;28;20036;-71
2023/12/10 05:02:17;;;;;;;8.47;4.60;;;;;;;;;;5025894;28;20033;-71
2023/12/10 05:04:44;;;;;;;9.23;5.00;;;;;;;;;;5031632;28;20061;-71
2023/12/10 05:07:09;;;;;;;10.57;5.73;;;;;;;;;;5034408;28;20113;-71
2023/12/10 05:09:35;;;;;;;10.73;5.00;;;;;;;;;;5015667;28;20054;-69
2023/12/10 05:12:01;;;;;;;13.77;5.87;;;;;;;;;;5015395;28;20029;-71
2023/12/10 05:14:26;;;;;;;9.27;4.40;;;;;;;;;;5016199;28;20057;-71
2023/12/10 05:16:52;;;;;;;11.10;5.70;;;;;;;;;;5014160;28;20053;-71
2023/12/10 05:19:17;;;;;;;9.50;5.50;;;;;;;;;;5013492;28;20124;-71
2023/12/10 05:21:43;;;;;;;8.87;5.10;;;;;;;;;;5033610;28;20033;-71
2023/12/10 05:24:08;;;;;;;9.07;4.53;;;;;;;;;;5035523;28;20037;-70
2023/12/10 05:26:34;;;;;;;12.67;5.97;;;;;;;;;;5033709;28;20029;-75
2023/12/10 05:28:59;;;;;;;7.00;4.40;;;;;;;;;;5035653;28;20026;-74
2023/12/10 05:31:25;;;;;;;12.90;6.33;;;;;;;;;;5033478;28;20036;-72
2023/12/10 05:33:51;;;;;;;7.57;4.93;;;;;;;;;;5034277;28;20033;-72
2023/12/10 05:36:16;;;;;;;7.60;4.77;;;;;;;;;;5034088;28;20028;-73
2023/12/10 05:38:42;;;;;;;11.10;5.00;;;;;;;;;;5032890;28;20120;-72
2023/12/10 05:41:07;;;;;;;8.40;4.23;;;;;;;;;;5035128;28;20035;-72
2023/12/10 05:43:33;;;;;;;6.90;4.50;;;;;;;;;;5032102;28;20037;-71
2023/12/10 05:45:59;;;;;;;7.77;4.83;;;;;;;;;;5015466;28;20033;-72
2023/12/10 05:48:27;;;;;;;7.23;4.67;;;;;;;;;;5013044;28;20099;-73
2023/12/10 05:50:53;;;;;;;9.07;5.13;;;;;;;;;;5012168;28;20040;-72
2023/12/10 05:53:19;;;;;;;5.30;3.80;;;;;;;;;;5012237;28;20030;-70
2023/12/10 05:55:44;;;;;;;8.73;4.33;;;;;;;;;;5017520;28;20111;-72
2023/12/10 05:58:10;;;;;;;6.83;4.27;;;;;;;;;;5032833;28;20035;-72
2023/12/10 06:00:35;;;;;;;8.53;4.73;;;;;;;;;;5032820;28;20025;-71
2023/12/10 06:03:02;;;;;;;5.57;4.20;;;;;;;;;;5014973;28;20125;-71
2023/12/10 06:05:28;;;;;;;8.97;4.20;;;;;;;;;;5012440;28;20029;-71
2023/12/10 06:07:54;;;;;;;7.70;4.40;;;;;;;;;;5013271;28;20117;-70
2023/12/10 06:10:20;;;;;;;10.33;4.83;;;;;;;;;;5014388;28;20040;-71
2023/12/10 06:12:46;;;;;;;9.73;5.17;;;;;;;;;;5012666;28;20049;-70
2023/12/10 06:15:13;;;;;;;8.07;5.17;;;;;;;;;;5030120;28;20044;-72
2023/12/10 06:17:38;;;;;;;12.43;6.43;;;;;;;;;;5032262;28;20029;-70
2023/12/10 06:20:08;;;;;;;8.63;5.43;;;;;;;;;;5032841;28;20025;-73
2023/12/10 06:22:34;;;;;;;6.90;4.40;;;;;;;;;;5031374;28;20040;-73
2023/12/10 06:25:00;;;;;;;9.50;5.20;;;;;;;;;;5033629;28;20033;-73
2023/12/10 06:27:27;;;;;;;4.47;4.03;;;;;;;;;;5018191;28;20034;-71
2023/12/10 06:29:52;;;;;;;7.83;4.80;;;;;;;;;;5014076;28;20117;-72
2023/12/10 06:32:18;;;;;;;10.80;5.13;;;;;;;;;;5011619;28;20061;-71
2023/12/10 06:34:44;;;;;;;13.83;5.63;;;;;;;;;;5012726;28;20034;-71
2023/12/10 06:37:09;;;;;;;11.43;5.00;;;;;;;;;;5019400;28;20034;-70
2023/12/10 06:39:35;;;;;;;7.37;4.93;;;;;;;;;;5032177;28;20021;-72
2023/12/10 06:42:01;;;;;;;7.43;5.17;;;;;;;;;;5031552;28;20040;-70
2023/12/10 06:44:27;;;;;;;9.33;5.33;;;;;;;;;;5014300;28;20029;-72
2023/12/10 06:46:52;;;;;;;7.83;5.03;;;;;;;;;;5025939;28;20093;-70
2023/12/10 06:49:18;;;;;;;11.33;6.03;;;;;;;;;;5020283;28;20034;-71
2023/12/10 06:51:44;;;;;;;15.60;5.37;;;;;;;;;;5030370;28;20481;-70
2023/12/10 06:54:10;;;;;;;8.83;4.53;;;;;;;;;;5030650;28;20473;-72
2023/12/10 06:56:40;;;;;;;9.83;5.00;;;;;;;;;;5030671;28;20049;-70
2023/12/10 06:59:09;;;;;;;8.30;4.20;;;;;;;;;;5030716;28;20553;-73
2023/12/10 07:01:39;;;;;;;8.43;4.17;;;;;;;;;;5024300;28;20033;-72
2023/12/10 07:04:08;;;;;;;9.83;4.13;;;;;;;;;;5007856;28;20504;-72
2023/12/10 07:06:34;;;;;;;4.80;3.17;;;;;;;;;;5008719;28;20446;-73
2023/12/10 07:09:00;;;;;;;10.53;3.77;;;;;;;;;;5008574;28;20026;-72
2023/12/10 07:11:26;;;;;;;8.93;3.80;;;;;;;;;;5021610;28;20057;-72
2023/12/10 07:13:53;;;;;;;7.60;3.60;;;;;;;;;;5027900;28;20076;-70
2023/12/10 07:16:19;;;;;;;7.77;3.23;;;;;;;;;;5028705;28;20038;-72
2023/12/10 07:18:45;;;;;;;9.50;4.23;;;;;;;;;;5027550;28;20037;-72
2023/12/10 07:21:10;;;;;;;5.43;2.77;;;;;;;;;;5032254;28;20436;-71
2023/12/10 07:23:39;;;;;;;7.00;3.20;;;;;;;;;;5015757;28;20038;-72
2023/12/10 07:26:05;;;;;;;7.20;3.00;;;;;;;;;;5012344;28;20030;-72
2023/12/10 07:28:30;;;;;;;11.00;2.40;;;;;;;;;;5012407;28;20034;-72
2023/12/10 07:30:56;;;;;;;12.20;3.37;;;;;;;;;;5016755;28;20034;-72
2023/12/10 07:33:22;;;;;;;7.47;2.83;;;;;;;;;;5021481;28;20085;-73
2023/12/10 07:35:48;;;;;;;3.53;2.30;;;;;;;;;;5035046;28;20144;-73
2023/12/10 07:38:13;;;;;;;6.53;2.67;;;;;;;;;;5037885;28;20029;-72
2023/12/10 07:40:39;;;;;;;6.70;2.40;;;;;;;;;;5038876;28;20021;-73
2023/12/10 07:43:06;;;;;;;7.70;2.67;;;;;;;;;;5033595;28;20028;-72
2023/12/10 07:45:32;;;;;;;5.30;2.10;;;;;;;;;;5031958;28;20127;-72
2023/12/10 07:47:57;;;;;;;7.73;2.03;;;;;;;;;;5031328;28;20497;-72
2023/12/10 07:50:23;;;;;;;4.43;2.50;;;;;;;;;;5031798;28;20108;-70
2023/12/10 07:52:48;;;;;;;5.23;2.40;;;;;;;;;;5031671;28;20033;-70
2023/12/10 07:55:14;;;;;;;7.00;2.77;;;;;;;;;;5030307;28;20156;-70
2023/12/10 07:57:39;;;;;;;13.70;3.30;;;;;;;;;;5029841;28;20458;-70
2023/12/10 08:00:06;;;;;;;11.70;2.40;;;;;;;;;;5031263;28;20517;-71
2023/12/10 08:02:32;;;;;;;5.70;2.43;;;;;;;;;;5017406;28;20416;-70
2023/12/10 08:05:00;;;;;;;7.37;2.13;;;;;;;;;;5009972;28;20034;-71
2023/12/10 08:07:26;;;;;;;9.67;2.83;;;;;;;;;;5011602;28;20331;-68
2023/12/10 08:09:51;;;;;;;9.50;1.87;;;;;;;;;;5011007;28;20080;-71
2023/12/10 08:12:17;;;;;;;10.07;2.60;;;;;;;;;;5020902;28;20033;-70
2023/12/10 08:14:44;;;;;;;12.77;2.47;;;;;;;;;;5011463;28;20029;-71
2023/12/10 08:17:10;;;;;;;12.27;3.80;;;;;;;;;;5009903;28;20026;-70
2023/12/10 08:19:36;;;;;;;10.97;2.53;;;;;;;;;;5009943;28;20046;-71
2023/12/10 08:22:02;;;;;;;12.33;2.50;;;;;;;;;;5009584;28;20088;-71
2023/12/10 08:24:28;;;;;;;7.17;2.90;;;;;;;;;;5011153;28;20033;-70
2023/12/10 08:26:54;;;;;;;10.27;1.87;;;;;;;;;;5010842;28;20033;-71
2023/12/10 08:29:19;;;;;;;9.57;2.37;;;;;;;;;;5025873;28;20076;-70
2023/12/10 08:31:45;;;;;;;11.97;2.57;;;;;;;;;;5026128;28;20417;-70
2023/12/10 08:34:10;;;;;;;15.93;2.80;;;;;;;;;;5010781;28;20436;-74
2023/12/10 08:36:38;;;;;;;7.47;2.53;;;;;;;;;;5031111;28;20489;-70
2023/12/10 08:39:03;;;;;;;9.20;2.93;;;;;;;;;;5028908;28;20135;-72
2023/12/10 08:41:30;;;;;;;18.40;3.47;;;;;;;;;;5030635;28;20155;-70
2023/12/10 08:43:56;;;;;;;11.50;1.93;;;;;;;;;;5030683;28;20028;-72
2023/12/10 08:46:21;;;;;;;11.47;3.00;;;;;;;;;;5026142;28;20396;-71
2023/12/10 08:48:47;;;;;;;10.50;2.70;;;;;;;;;;5009129;28;20414;-71
2023/12/10 08:51:12;;;;;;;10.37;2.33;;;;;;;;;;5010499;28;20029;-71
2023/12/10 08:53:38;;;;;;;11.10;2.73;;;;;;;;;;5009239;28;20045;-71
2023/12/10 08:56:04;;;;;;;12.50;3.40;;;;;;;;;;5010203;28;20050;-70
2023/12/10 08:58:30;;;;;;;10.63;3.60;;;;;;;;;;5013020;28;20840;-71
2023/12/10 09:00:55;;;;;;;9.60;2.70;;;;;;;;;;5028654;28;20527;-70
2023/12/10 09:03:21;;;;;;;21.53;2.97;;;;;;;;;;5009252;28;20033;-70
2023/12/10 09:05:46;;;;;;;10.90;3.43;;;;;;;;;;5008845;28;20465;-70
2023/12/10 09:08:12;;;;;;;7.60;2.97;;;;;;;;;;5009128;28;20354;-68
2023/12/10 09:10:37;;;;;;;11.05;2.20;;;;;;;;;;5012831;28;20044;-71
2023/12/10 09:13:03;;;;;;;7.80;2.50;;;;;;;;;;5030059;28;20025;-70
2023/12/10 09:15:29;;;;;;;5.78;2.03;;;;;;;;;;5030120;28;20032;-70
2023/12/10 09:17:55;;;;;;;12.30;2.47;;;;;;;;;;5029637;28;20117;-70
2023/12/10 09:20:20;;;;;;;14.37;2.60;;;;;;;;;;5029922;28;20038;-70
2023/12/10 09:22:46;;;;;;;9.57;2.47;;;;;;;;;;5027331;28;20039;-70
2023/12/10 09:25:11;;;;;;;10.20;1.92;;;;;;;;;;5010043;28;20037;-71
2023/12/10 09:27:37;;;;;;;10.20;2.50;;;;;;;;;;4992662;28;20053;-69
2023/12/10 09:30:03;;;;;;;10.10;1.88;;;;;;;;;;5009525;28;20049;-70
2023/12/10 09:32:29;;;;;;;6.45;2.05;;;;;;;;;;5009978;28;20437;-71
2023/12/10 09:34:55;;;;;;;13.07;2.60;;;;;;;;;;5009334;28;20028;-69
2023/12/10 09:37:20;;;;;;;12.27;2.13;;;;;;;;;;5030391;28;20032;-69
2023/12/10 09:39:46;;;;;;;9.25;2.38;;;;;;;;;;5028839;28;20060;-70
2023/12/10 09:42:12;;;;;;;10.35;1.92;;;;;;;;;;5030079;28;20043;-69
2023/12/10 09:44:38;;;;;;;15.23;2.65;;;;;;;;;;5030040;28;20305;-70
2023/12/10 09:47:10;;;;;;;11.23;2.45;;;;;;;;;;5027086;28;20112;-70
2023/12/10 09:49:40;;;;;;;13.30;2.08;;;;;;;;;;5025499;28;20036;-71
2023/12/10 09:52:06;;;;;;;15.40;2.75;;;;;;;;;;5028114;28;20400;-71
2023/12/10 09:54:32;;;;;;;14.25;1.95;;;;;;;;;;5029434;28;20028;-70
2023/12/10 09:56:58;;;;;;;6.45;2.03;;;;;;;;;;5027686;28;20049;-70
2023/12/10 09:59:23;;;;;;;3.93;1.80;;;;;;;;;;5028634;28;20033;-70
2023/12/10 10:01:53;;;;;;;13.23;2.30;;;;;;;;;;5019398;28;20461;-70
2023/12/10 10:04:19;;;;;;;8.63;2.40;;;;;;;;;;5008391;28;20038;-71
2023/12/10 10:06:45;;;;;;;5.55;1.98;;;;;;;;;;4992065;28;20030;-71
2023/12/10 10:09:11;;;;;;;11.55;2.08;;;;;;;;;;5008018;28;20041;-72
2023/12/10 10:11:39;;;;;;;11.17;2.00;;;;;;;;;;5014392;28;20064;-70
2023/12/10 10:14:07;;;;;;;14.13;3.30;;;;;;;;;;5028893;28;20065;-69
2023/12/10 10:16:34;;;;;;;13.60;2.83;;;;;;;;;;5029372;28;20497;-70
2023/12/10 10:19:00;;;;;;;13.27;2.40;;;;;;;;;;5028127;28;20123;-70
2023/12/10 10:21:26;;;;;;;10.30;2.42;;;;;;;;;;5029330;28;20839;-69
2023/12/10 10:23:51;;;;;;;11.77;2.25;;;;;;;;;;5023051;28;20030;-70
2023/12/10 10:26:20;;;;;;;6.82;2.63;;;;;;;;;;5009457;28;20096;-70
2023/12/10 10:28:46;;;;;;;10.80;3.00;;;;;;;;;;5008186;28;20030;-69
2023/12/10 10:31:12;;;;;;;10.75;2.75;;;;;;;;;;5009161;28;20164;-69
2023/12/10 10:33:38;;;;;;;16.30;3.20;;;;;;;;;;5008059;28;20034;-70
2023/12/10 10:36:05;;;;;;;11.50;2.80;;;;;;;;;;5013689;28;20037;-69
2023/12/10 10:38:31;;;;;;;12.45;2.17;;;;;;;;;;5027764;28;20044;-71
2023/12/10 10:41:00;;;;;;;18.83;3.75;;;;;;;;;;5027389;28;20099;-71
2023/12/10 10:43:26;;;;;;;10.30;2.38;;;;;;;;;;5027414;28;20619;-71
2023/12/10 10:45:53;;;;;;;21.45;2.88;;;;;;;;;;5028959;28;20109;-71
2023/12/10 10:48:25;;;;;;;8.88;2.53;;;;;;;;;;5027890;28;20118;-71
2023/12/10 10:50:52;;;;;;;12.95;2.75;;;;;;;;;;5028757;28;20456;-70
2023/12/10 10:53:19;;;;;;;7.32;2.55;;;;;;;;;;5027045;28;20041;-70
2023/12/10 10:55:48;;;;;;;9.27;2.67;;;;;;;;;;5032304;28;20100;-70
2023/12/10 10:58:27;;;;;;;13.32;2.75;;;;;;;;;;5031225;28;20107;-70
2023/12/10 11:00:57;;;;;;;15.05;3.45;;;;;;;;;;5022453;28;20037;-70
2023/12/10 11:03:27;;;;;;;17.70;2.97;;;;;;;;;;5031282;28;20033;-72
2023/12/10 11:06:01;;;;;;;8.55;2.38;;;;;;;;;;5031167;28;20464;-70
2023/12/10 11:08:28;;;;;;;9.30;1.98;;;;;;;;;;5032469;28;20033;-69
2023/12/10 11:11:00;;;;;;;10.90;2.50;;;;;;;;;;5032153;28;20072;-69
2023/12/10 11:13:44;;;;;;;5.97;1.95;;;;;;;;;;5015682;28;20546;-71
2023/12/10 11:16:09;;;;;;;10.23;2.35;;;;;;;;;;5012114;28;20117;-70
2023/12/10 11:18:56;;;;;;;13.77;2.38;;;;;;;;;;5012245;28;20056;-71
2023/12/10 11:21:22;;;;;;;13.45;2.38;;;;;;;;;;5012540;28;20466;-70
2023/12/10 11:23:47;;;;;;;7.90;1.98;;;;;;;;;;5015862;28;20173;-71
2023/12/10 11:26:13;;;;;;;14.43;2.50;;;;;;;;;;5031852;28;20029;-70
2023/12/10 11:28:41;;;;;;;7.45;2.47;;;;;;;;;;5032001;28;20657;-69
2023/12/10 11:31:06;;;;;;;12.80;2.92;;;;;;;;;;5030171;28;20029;-69
2023/12/10 11:33:32;;;;;;;10.50;2.50;;;;;;;;;;5031662;28;20052;-70
2023/12/10 11:35:57;;;;;;;10.60;2.20;;;;;;;;;;5026781;28;20034;-69
2023/12/10 11:38:23;;;;;;;9.32;1.92;;;;;;;;;;5012459;28;20041;-71
2023/12/10 11:40:49;;;;;;;9.18;2.05;;;;;;;;;;5012157;28;20034;-71
2023/12/10 11:43:16;;;;;;;5.93;1.65;;;;;;;;;;5012285;28;20026;-70
2023/12/10 11:45:42;;;;;;;10.30;2.40;;;;;;;;;;5012493;28;20029;-71
2023/12/10 11:48:10;;;;;;;8.18;2.95;;;;;;;;;;5014419;28;20034;-70
2023/12/10 11:50:37;;;;;;;9.80;1.83;;;;;;;;;;5012452;28;20442;-70
2023/12/10 11:53:03;;;;;;;8.13;2.28;;;;;;;;;;5012128;28;20129;-70
2023/12/10 11:55:30;;;;;;;17.92;2.72;;;;;;;;;;5011949;28;20589;-69
2023/12/10 11:57:56;;;;;;;9.35;2.95;;;;;;;;;;5011871;28;20077;-70
2023/12/10 12:00:24;;;;;;;11.38;2.10;;;;;;;;;;5018156;28;20033;-69
2023/12/10 12:02:49;;;;;;;12.77;2.17;;;;;;;;;;5014661;28;20029;-71
2023/12/10 12:05:15;;;;;;;12.00;1.85;;;;;;;;;;5011236;28;20025;-70
2023/12/10 12:07:43;;;;;;;9.13;2.25;;;;;;;;;;5011191;28;20026;-69
2023/12/10 12:10:11;;;;;;;15.02;2.25;;;;;;;;;;5011509;28;20032;-69
2023/12/10 12:12:39;;;;;;;11.45;2.22;;;;;;;;;;5021142;28;20036;-69
2023/12/10 12:15:06;;;;;;;12.93;2.88;;;;;;;;;;5017162;28;20053;-69
2023/12/10 12:17:32;;;;;;;10.55;3.03;;;;;;;;;;5027767;28;20468;-70
2023/12/10 12:20:26;;;;;;;10.32;2.03;;;;;;;;;;5029742;28;20446;-69
2023/12/10 12:22:52;;;;;;;10.90;2.00;;;;;;;;;;5016735;28;20099;-72
2023/12/10 12:25:18;;;;;;;12.07;2.95;;;;;;;;;;5011544;28;20033;-69
2023/12/10 12:27:45;;;;;;;14.13;2.88;;;;;;;;;;4993780;28;20033;-73
2023/12/10 12:30:11;;;;;;;8.88;1.88;;;;;;;;;;5011504;28;20065;-71
2023/12/10 12:32:38;;;;;;;6.28;1.75;;;;;;;;;;5022329;28;20044;-72
2023/12/10 12:35:05;;;;;;;7.80;2.17;;;;;;;;;;5030806;28;20021;-70
2023/12/10 12:37:30;;;;;;;7.38;1.60;;;;;;;;;;5031139;28;20059;-71
2023/12/10 12:39:57;;;;;;;11.35;2.08;;;;;;;;;;5031047;28;20033;-72
2023/12/10 12:42:23;;;;;;;12.02;2.45;;;;;;;;;;5030330;28;20380;-72
2023/12/10 12:44:50;;;;;;;10.15;2.53;;;;;;;;;;5017942;28;20069;-73
2023/12/10 12:47:17;;;;;;;11.55;3.50;;;;;;;;;;5009371;28;20038;-73
2023/12/10 12:49:43;;;;;;;13.02;2.80;;;;;;;;;;5009481;28;20038;-72
2023/12/10 12:52:08;;;;;;;16.15;2.53;;;;;;;;;;5010237;28;20037;-71
2023/12/10 12:54:34;;;;;;;7.70;1.75;;;;;;;;;;5010654;28;20061;-72
2023/12/10 12:57:00;;;;;;;16.90;3.30;;;;;;;;;;5010891;28;20062;-70
2023/12/10 12:59:26;;;;;;;9.48;2.00;;;;;;;;;;5008729;28;20025;-71
2023/12/10 13:01:51;;;;;;;6.85;2.33;;;;;;;;;;5017804;28;20029;-72
2023/12/10 13:04:17;;;;;;;9.82;2.28;;;;;;;;;;5012115;28;20033;-71
2023/12/10 13:06:43;;;;;;;8.43;2.15;;;;;;;;;;5029920;28;20047;-71
2023/12/10 13:09:09;;;;;;;12.13;2.08;;;;;;;;;;5017757;28;20513;-71
2023/12/10 13:11:36;;;;;;;3.85;1.85;;;;;;;;;;5008718;28;20062;-71
2023/12/10 13:14:04;;;;;;;17.10;2.95;;;;;;;;;;5010235;28;20025;-70
2023/12/10 13:16:32;;;;;;;17.38;2.70;;;;;;;;;;5009550;28;20057;-72
2023/12/10 13:18:58;;;;;;;6.88;2.10;;;;;;;;;;5009206;28;20480;-71
2023/12/10 13:21:24;;;;;;;12.20;2.90;;;;;;;;;;5008723;28;20341;-72
2023/12/10 13:23:51;;;;;;;7.63;2.75;;;;;;;;;;5008987;28;20045;-72
2023/12/10 13:26:16;;;;;;;11.50;1.65;;;;;;;;;;5008521;28;20025;-71
2023/12/10 13:28:42;;;;;;;9.52;2.20;;;;;;;;;;5009035;28;20061;-71
2023/12/10 13:31:08;;;;;;;9.13;2.22;;;;;;;;;;5009743;28;20038;-72
2023/12/10 13:33:34;;;;;;;11.15;2.40;;;;;;;;;;5025775;28;20520;-71
2023/12/10 13:35:59;;;;;;;12.27;3.13;;;;;;;;;;5029461;28;20033;-71
2023/12/10 13:38:25;;;;;;;14.43;2.47;;;;;;;;;;5029257;28;20036;-71
2023/12/10 13:40:51;;;;;;;7.43;2.58;;;;;;;;;;5029759;28;20048;-71
2023/12/10 13:43:21;;;;;;;12.57;2.10;;;;;;;;;;5029526;28;20055;-71
2023/12/10 13:45:48;;;;;;;7.47;2.53;;;;;;;;;;5012780;28;20117;-73
2023/12/10 13:48:14;;;;;;;14.65;2.67;;;;;;;;;;5008565;28;20034;-70
2023/12/10 13:50:40;;;;;;;5.88;2.10;;;;;;;;;;5009835;28;20160;-72
2023/12/10 13:53:05;;;;;;;18.65;4.35;;;;;;;;;;5008118;28;20120;-71
2023/12/10 13:55:32;;;;;;;10.07;2.65;;;;;;;;;;5008552;28;20133;-72
2023/12/10 13:57:59;;;;;;;11.98;2.53;;;;;;;;;;5028883;28;20053;-71
2023/12/10 14:00:24;;;;;;;12.80;2.55;;;;;;;;;;5029009;28;20539;-71
2023/12/10 14:02:51;;;;;;;11.13;2.50;;;;;;;;;;5011073;28;20030;-71
2023/12/10 14:05:16;;;;;;;13.63;2.30;;;;;;;;;;5009699;28;20104;-71
2023/12/10 14:07:49;;;;;;;14.35;2.47;;;;;;;;;;5012560;28;20072;-70
2023/12/10 14:10:17;;;;;;;11.50;1.85;;;;;;;;;;5029168;28;20112;-72
2023/12/10 14:12:43;;;;;;;13.57;2.40;;;;;;;;;;5027995;28;20641;-72
2023/12/10 14:15:09;;;;;;;8.52;1.67;;;;;;;;;;5027869;28;20030;-73
2023/12/10 14:17:38;;;;;;;14.43;2.95;;;;;;;;;;5027541;28;20025;-71
2023/12/10 14:20:04;;;;;;;15.18;2.22;;;;;;;;;;5019192;28;20091;-71
2023/12/10 14:22:29;;;;;;;14.05;2.22;;;;;;;;;;5009048;28;20038;-71
2023/12/10 14:24:56;;;;;;;11.40;2.03;;;;;;;;;;5009484;28;20080;-72
2023/12/10 14:27:21;;;;;;;13.38;2.33;;;;;;;;;;5009084;28;20475;-73
2023/12/10 14:29:46;;;;;;;11.43;2.58;;;;;;;;;;5013131;28;20161;-72
2023/12/10 14:32:16;;;;;;;9.23;2.35;;;;;;;;;;5011596;28;20041;-72